Time;durP1;ratioP1;P1;durP2;ratioP2;P2;SDS_P1;SDS_P2;PMS_P1;PMS_P2;Temp;Humidity;BMP_temperature;BMP_pressure;BME280_temperature;BME280_humidity;BME280_pressure;Samples;Min_cycle;Max_cycle;Signal;HPM_P1;HPM_P2
2022/12/08 00:01:14;;;;;;;15.68;8.55;;;;;;;-2.51;100.00;96888.84;5046518;28;20136;-59
2022/12/08 00:03:41;;;;;;;15.50;8.60;;;;;;;-2.38;100.00;96901.47;5048497;28;20496;-59
2022/12/08 00:09:20;;;;;;;17.10;7.85;;;;;;;-2.15;100.00;96892.59;5029906;28;20037;-60
2022/12/08 00:11:53;;;;;;;14.85;7.40;;;;;;;-2.21;100.00;96886.22;5067824;28;20044;-59
2022/12/08 00:14:23;;;;;;;16.50;8.95;;;;;;;-2.30;100.00;96889.94;5058024;28;20107;-59
2022/12/08 00:16:49;;;;;;;16.40;8.48;;;;;;;-2.46;100.00;96888.28;5048406;28;20049;-58
2022/12/08 00:19:16;;;;;;;13.48;7.47;;;;;;;-2.71;100.00;96873.44;5040704;28;20107;-59
2022/12/08 00:21:43;;;;;;;18.02;8.25;;;;;;;-2.80;100.00;96880.63;5032663;28;20654;-58
2022/12/08 00:24:09;;;;;;;17.75;8.93;;;;;;;-2.84;100.00;96876.69;5047411;28;20460;-58
2022/12/08 00:26:36;;;;;;;16.58;8.85;;;;;;;-2.89;100.00;96877.25;5059668;28;20112;-57
2022/12/08 00:29:03;;;;;;;16.20;8.30;;;;;;;-2.87;100.00;96871.75;5028084;28;20076;-57
2022/12/08 00:31:30;;;;;;;17.77;9.18;;;;;;;-2.88;100.00;96878.03;5028648;28;20152;-59
2022/12/08 00:33:57;;;;;;;22.90;9.45;;;;;;;-2.92;100.00;96864.34;5029566;28;20050;-59
2022/12/08 00:36:24;;;;;;;16.92;8.90;;;;;;;-2.80;100.00;96869.22;5034446;28;20048;-59
2022/12/08 00:38:51;;;;;;;14.82;8.90;;;;;;;-2.78;100.00;96873.34;5046816;28;20496;-59
2022/12/08 00:44:07;;;;;;;14.07;7.63;;;;;;;-2.85;100.00;96869.75;5047474;28;20102;-57
2022/12/08 00:46:34;;;;;;;15.77;8.52;;;;;;;-2.95;100.00;96864.69;5048091;28;20450;-58
2022/12/08 00:49:01;;;;;;;16.33;7.85;;;;;;;-2.99;100.00;96865.25;5048001;28;20119;-58
2022/12/08 00:51:28;;;;;;;13.30;6.70;;;;;;;-2.86;100.00;96870.75;5047038;28;20055;-57
2022/12/08 00:53:54;;;;;;;13.85;7.60;;;;;;;-2.77;100.00;96863.53;5047656;28;20044;-58
2022/12/08 00:56:21;;;;;;;14.13;7.30;;;;;;;-2.69;100.00;96865.31;5038491;28;20049;-59
2022/12/08 00:58:47;;;;;;;13.13;7.68;;;;;;;-2.62;100.00;96868.88;5047691;28;20219;-59
2022/12/08 01:01:14;;;;;;;15.10;7.07;;;;;;;-2.82;100.00;96863.25;5046900;28;20116;-58
2022/12/08 01:03:41;;;;;;;13.32;6.53;;;;;;;-3.20;100.00;96859.59;5047171;28;20045;-57
2022/12/08 01:06:08;;;;;;;14.15;7.05;;;;;;;-3.38;100.00;96857.25;5047455;28;20467;-59
2022/12/08 01:08:36;;;;;;;15.93;7.10;;;;;;;-3.35;100.00;96856.91;5047361;28;20131;-58
2022/12/08 01:11:08;;;;;;;15.18;7.57;;;;;;;-3.32;100.00;96856.53;5063837;28;20048;-59
2022/12/08 01:13:34;;;;;;;17.25;7.55;;;;;;;-3.26;100.00;96865.59;5066986;28;20053;-59
2022/12/08 01:16:01;;;;;;;11.73;7.63;;;;;;;-3.22;100.00;96869.53;5047438;28;20044;-58
2022/12/08 01:18:28;;;;;;;14.38;7.07;;;;;;;-3.37;100.00;96864.19;5046262;28;20119;-59
2022/12/08 01:20:54;;;;;;;13.48;7.30;;;;;;;-3.50;100.00;96850.69;5026730;28;20091;-58
2022/12/08 01:23:21;;;;;;;13.63;7.72;;;;;;;-3.60;100.00;96861.50;5045712;28;20582;-59
2022/12/08 01:25:47;;;;;;;11.60;6.65;;;;;;;-3.68;100.00;96857.09;5054521;28;20099;-59
2022/12/08 01:28:14;;;;;;;9.60;6.13;;;;;;;-3.72;100.00;96861.06;5064568;28;20115;-59
2022/12/08 01:30:40;;;;;;;15.68;8.10;;;;;;;-3.80;100.00;96859.28;5066185;28;20041;-59
2022/12/08 01:33:07;;;;;;;13.23;7.05;;;;;;;-3.69;100.00;96858.91;5066937;28;20056;-59
2022/12/08 01:35:33;;;;;;;12.63;6.93;;;;;;;-3.79;100.00;96856.47;5052826;28;20120;-58
2022/12/08 01:38:00;;;;;;;14.68;7.28;;;;;;;-3.90;100.00;96856.88;5046761;28;20077;-59
2022/12/08 01:40:26;;;;;;;19.23;8.77;;;;;;;-3.76;100.00;96850.00;5046651;28;20045;-59
2022/12/08 01:42:53;;;;;;;14.55;7.85;;;;;;;-3.73;100.00;96859.44;5046433;28;20484;-58
2022/12/08 01:45:27;;;;;;;15.70;8.25;;;;;;;-3.82;100.00;96848.06;5046670;28;20053;-58
2022/12/08 01:47:59;;;;;;;15.95;8.18;;;;;;;-3.69;100.00;96848.31;5046377;28;20675;-58
2022/12/08 01:50:27;;;;;;;18.35;8.60;;;;;;;-3.74;100.00;96849.81;5046671;28;20072;-58
2022/12/08 01:53:19;;;;;;;14.70;8.00;;;;;;;-3.64;100.00;96839.88;5046432;28;20045;-59
2022/12/08 01:55:52;;;;;;;13.50;7.53;;;;;;;-3.49;100.00;96842.59;5045952;28;20048;-59
2022/12/08 01:58:25;;;;;;;17.15;7.70;;;;;;;-3.46;100.00;96849.34;5046666;28;20458;-61
2022/12/08 02:00:52;;;;;;;18.08;8.95;;;;;;;-3.41;100.00;96837.25;5045960;28;20428;-59
2022/12/08 02:03:30;;;;;;;16.33;7.45;;;;;;;-3.39;100.00;96834.41;5046624;28;20459;-59
2022/12/08 02:05:57;;;;;;;10.77;7.22;;;;;;;-3.31;100.00;96826.38;5046319;28;20531;-61
2022/12/08 02:08:25;;;;;;;13.60;7.88;;;;;;;-3.30;100.00;96822.75;5045567;28;20057;-60
2022/12/08 02:10:52;;;;;;;17.48;8.07;;;;;;;-3.31;100.00;96812.34;5060920;28;20053;-61
2022/12/08 02:13:21;;;;;;;13.65;8.02;;;;;;;-3.34;100.00;96815.34;5066296;28;20128;-62
2022/12/08 02:16:16;;;;;;;15.07;7.90;;;;;;;-3.28;100.00;96812.81;5066295;28;20044;-59
2022/12/08 02:18:57;;;;;;;16.58;8.60;;;;;;;-3.19;100.00;96807.44;5052868;28;20058;-57
2022/12/08 02:21:47;;;;;;;13.90;6.93;;;;;;;-3.28;100.00;96810.16;5033915;28;20046;-58
2022/12/08 02:24:33;;;;;;;16.88;8.65;;;;;;;-3.35;100.00;96814.53;5041256;28;20045;-59
2022/12/08 02:27:21;;;;;;;15.30;7.97;;;;;;;-3.43;100.00;96804.00;5025646;28;20056;-58
2022/12/08 02:30:10;;;;;;;15.93;7.72;;;;;;;-3.39;100.00;96807.94;5025759;28;20042;-57
2022/12/08 02:32:59;;;;;;;15.82;7.93;;;;;;;-3.40;100.00;96796.53;5025019;28;20568;-59
2022/12/08 02:35:51;;;;;;;12.40;7.10;;;;;;;-3.38;100.00;96798.16;5038655;28;20040;-58
2022/12/08 02:38:36;;;;;;;14.27;7.15;;;;;;;-3.33;100.00;96796.63;5045499;28;20205;-60
2022/12/08 02:41:23;;;;;;;13.25;7.82;;;;;;;-3.31;100.00;96797.25;5045348;28;20048;-60
2022/12/08 02:43:59;;;;;;;11.48;6.68;;;;;;;-3.34;100.00;96794.16;5029566;28;20049;-60
2022/12/08 02:46:31;;;;;;;13.93;7.25;;;;;;;-3.30;100.00;96793.63;5024739;28;20073;-60
2022/12/08 02:48:58;;;;;;;12.27;6.00;;;;;;;-3.24;100.00;96799.22;5031702;28;20045;-57
2022/12/08 02:51:25;;;;;;;13.05;7.35;;;;;;;-3.25;100.00;96793.09;5045443;28;20125;-59
2022/12/08 02:53:52;;;;;;;16.90;7.38;;;;;;;-3.09;100.00;96799.25;5045495;28;20045;-59
2022/12/08 02:56:34;;;;;;;13.63;6.32;;;;;;;-3.02;100.00;96797.53;5039622;28;20120;-56
2022/12/08 02:59:22;;;;;;;11.75;6.93;;;;;;;-2.99;100.00;96796.38;5025887;28;20531;-59
2022/12/08 03:02:22;;;;;;;12.35;6.82;;;;;;;-3.09;100.00;96793.97;5029267;28;20034;-58
2022/12/08 03:05:14;;;;;;;14.02;5.82;;;;;;;-3.16;100.00;96788.56;5029646;28;20073;-59
2022/12/08 03:08:06;;;;;;;11.75;6.30;;;;;;;-3.13;100.00;96780.25;5026416;28;20100;-57
2022/12/08 03:10:36;;;;;;;;;;;;;;;-3.36;100.00;96782.94;5045266;28;20144;-58
2022/12/08 03:13:11;;;;;;;14.77;6.53;;;;;;;-3.55;100.00;96769.16;5029702;28;20024;-59
2022/12/08 03:15:40;;;;;;;15.60;7.20;;;;;;;-3.43;100.00;96764.28;5029760;28;20085;-58
2022/12/08 03:18:11;;;;;;;13.98;7.63;;;;;;;-3.27;100.00;96766.78;5029391;28;20046;-59
2022/12/08 03:20:39;;;;;;;14.37;7.30;;;;;;;-3.33;100.00;96756.91;5049232;28;20547;-59
2022/12/08 03:23:10;;;;;;;13.93;6.88;;;;;;;-3.15;100.00;96764.53;5049174;28;20044;-59
2022/12/08 03:25:42;;;;;;;14.48;6.50;;;;;;;-2.95;100.00;96761.38;5049141;28;20554;-58
2022/12/08 03:28:09;;;;;;;13.30;6.63;;;;;;;-2.93;100.00;96761.19;5049699;28;20107;-58
2022/12/08 03:30:38;;;;;;;10.75;5.88;;;;;;;-3.06;100.00;96756.53;5048289;28;20068;-59
2022/12/08 03:33:16;;;;;;;10.30;5.32;;;;;;;-3.14;100.00;96760.88;5049232;28;20130;-59
2022/12/08 03:35:44;;;;;;;10.48;5.88;;;;;;;-2.92;100.00;96755.72;5048513;28;20132;-57
2022/12/08 03:38:14;;;;;;;12.73;6.28;;;;;;;-2.98;100.00;96756.44;5047855;28;20053;-59
2022/12/08 03:40:41;;;;;;;10.82;6.95;;;;;;;-3.20;100.00;96756.31;5046884;28;20041;-59
2022/12/08 03:43:08;;;;;;;12.10;6.30;;;;;;;-3.49;100.00;96744.66;5048424;28;20071;-59
2022/12/08 03:45:35;;;;;;;11.32;5.75;;;;;;;-3.66;100.00;96749.22;5049057;28;20053;-59
2022/12/08 03:48:01;;;;;;;12.18;6.20;;;;;;;-3.86;100.00;96744.41;5048254;28;20091;-58
2022/12/08 03:50:28;;;;;;;12.15;6.00;;;;;;;-3.96;100.00;96735.88;5031142;28;20041;-58
2022/12/08 03:52:54;;;;;;;11.77;6.47;;;;;;;-3.91;100.00;96741.47;5028725;28;20513;-59
2022/12/08 03:55:21;;;;;;;12.82;6.18;;;;;;;-3.92;100.00;96737.16;5028713;28;20049;-59
2022/12/08 03:57:47;;;;;;;11.55;6.05;;;;;;;-3.75;100.00;96737.91;5046443;28;20120;-59
2022/12/08 04:00:15;;;;;;;10.52;5.85;;;;;;;-3.75;100.00;96735.25;5048410;28;20479;-58
2022/12/08 04:02:42;;;;;;;10.43;5.47;;;;;;;-3.95;100.00;96738.34;5047862;28;20381;-59
2022/12/08 04:05:09;;;;;;;9.60;5.47;;;;;;;-4.18;100.00;96735.69;5048151;28;20521;-59
2022/12/08 04:07:35;;;;;;;12.25;6.05;;;;;;;-4.32;100.00;96726.66;5048665;28;20049;-58
2022/12/08 04:10:03;;;;;;;13.25;7.18;;;;;;;-4.44;100.00;96721.78;5055287;28;20094;-57
2022/12/08 04:12:30;;;;;;;12.73;7.15;;;;;;;-4.53;100.00;96725.47;5067205;28;20036;-58
2022/12/08 04:14:56;;;;;;;13.05;6.80;;;;;;;-4.38;100.00;96725.56;5068101;28;20491;-57
2022/12/08 04:17:23;;;;;;;12.38;6.00;;;;;;;-4.22;100.00;96729.09;5067846;28;20446;-58
2022/12/08 04:19:49;;;;;;;10.68;6.25;;;;;;;-3.96;100.00;96726.13;5056425;28;20119;-59
2022/12/08 04:22:15;;;;;;;14.18;7.15;;;;;;;-4.11;100.00;96731.34;5047774;28;20049;-58
2022/12/08 04:24:42;;;;;;;13.27;6.45;;;;;;;-4.19;100.00;96724.28;5048061;28;20051;-58
2022/12/08 04:27:08;;;;;;;15.27;7.78;;;;;;;-4.22;100.00;96718.50;5048164;28;20044;-57
2022/12/08 04:29:35;;;;;;;14.73;7.13;;;;;;;-4.20;100.00;96725.28;5047665;28;20128;-58
2022/12/08 04:32:01;;;;;;;13.93;8.25;;;;;;;-4.19;100.00;96723.47;5047591;28;20114;-59
2022/12/08 04:34:28;;;;;;;15.63;7.55;;;;;;;-4.17;100.00;96726.75;5044093;28;20116;-59
2022/12/08 04:36:54;;;;;;;12.65;5.90;;;;;;;-4.17;100.00;96724.09;5048057;28;20123;-58
2022/12/08 04:39:20;;;;;;;14.40;7.00;;;;;;;-4.09;100.00;96715.31;5047964;28;20045;-58
2022/12/08 04:41:47;;;;;;;11.68;6.43;;;;;;;-4.07;100.00;96714.13;5047206;28;20037;-59
2022/12/08 04:44:13;;;;;;;12.05;7.32;;;;;;;-4.07;100.00;96711.50;5047597;28;20411;-60
2022/12/08 04:46:40;;;;;;;13.60;7.07;;;;;;;-4.16;100.00;96711.72;5047396;28;20037;-53
2022/12/08 04:49:09;;;;;;;12.48;6.28;;;;;;;-4.27;100.00;96708.47;5048600;28;20116;-53
2022/12/08 04:51:36;;;;;;;13.27;6.35;;;;;;;-4.15;100.00;96706.25;5047221;28;20051;-55
2022/12/08 04:54:02;;;;;;;13.15;6.35;;;;;;;-4.28;100.00;96706.00;5047311;28;20644;-56
2022/12/08 04:56:29;;;;;;;12.60;7.10;;;;;;;-4.40;100.00;96701.09;5047755;28;20083;-55
2022/12/08 04:58:55;;;;;;;13.90;6.43;;;;;;;-4.45;100.00;96700.81;5047400;28;20040;-57
2022/12/08 05:01:22;;;;;;;10.23;6.28;;;;;;;-4.46;100.00;96701.81;5047156;28;20129;-54
2022/12/08 05:03:48;;;;;;;14.60;7.18;;;;;;;-4.42;100.00;96702.28;5047479;28;20045;-57
2022/12/08 05:06:15;;;;;;;15.10;7.05;;;;;;;-4.32;100.00;96701.06;5047136;28;20045;-55
2022/12/08 05:08:42;;;;;;;14.02;7.25;;;;;;;-4.23;100.00;96701.00;5047566;28;20102;-57
2022/12/08 05:11:11;;;;;;;11.07;6.18;;;;;;;-4.21;100.00;96693.72;5063800;28;20043;-54
2022/12/08 05:13:37;;;;;;;15.90;6.88;;;;;;;-4.16;100.00;96696.69;5067544;28;20131;-55
2022/12/08 05:16:09;;;;;;;12.38;7.07;;;;;;;-4.22;100.00;96686.78;5067168;28;20072;-57
2022/12/08 05:18:37;;;;;;;15.90;7.50;;;;;;;-4.14;100.00;96686.75;5065809;28;20406;-55
2022/12/08 05:21:04;;;;;;;14.60;7.88;;;;;;;-4.14;100.00;96694.66;5047247;28;20041;-51
2022/12/08 05:23:31;;;;;;;16.63;8.05;;;;;;;-4.13;100.00;96691.03;5045849;28;20065;-52
2022/12/08 05:25:58;;;;;;;13.07;7.30;;;;;;;-4.05;100.00;96688.31;5047378;28;20103;-53
2022/12/08 05:28:25;;;;;;;11.00;5.95;;;;;;;-3.98;100.00;96696.38;5047223;28;20531;-51
2022/12/08 05:31:08;;;;;;;12.75;5.68;;;;;;;-3.72;100.00;96695.19;5043465;28;20037;-53
2022/12/08 05:33:35;;;;;;;13.65;6.72;;;;;;;-3.83;100.00;96692.97;5047285;28;20048;-53
2022/12/08 05:36:01;;;;;;;11.68;6.00;;;;;;;-3.78;100.00;96693.28;5046848;28;20095;-53
2022/12/08 05:38:28;;;;;;;12.27;6.05;;;;;;;-3.73;100.00;96695.41;5046777;28;20767;-50
2022/12/08 05:40:54;;;;;;;13.02;6.28;;;;;;;-3.79;100.00;96691.63;5046415;28;20045;-51
2022/12/08 05:43:21;;;;;;;13.60;6.50;;;;;;;-3.69;100.00;96694.03;5047230;28;20049;-51
2022/12/08 05:45:47;;;;;;;10.70;6.10;;;;;;;-3.77;100.00;96692.25;5046410;28;20056;-52
2022/12/08 05:48:14;;;;;;;11.13;5.78;;;;;;;-3.70;100.00;96692.38;5046995;28;20068;-51
2022/12/08 05:50:48;;;;;;;11.55;5.78;;;;;;;-3.78;100.00;96693.28;5046935;28;20474;-56
2022/12/08 05:53:16;;;;;;;10.13;5.85;;;;;;;-3.68;100.00;96690.38;5046443;28;20041;-56
2022/12/08 05:55:42;;;;;;;11.98;6.00;;;;;;;-4.00;100.00;96686.97;5046733;28;20132;-55
2022/12/08 05:58:12;;;;;;;13.82;6.65;;;;;;;-4.13;100.00;96685.72;5046402;28;20769;-54
2022/12/08 06:00:39;;;;;;;13.77;6.70;;;;;;;-4.05;100.00;96677.75;5045665;28;20114;-56
2022/12/08 06:03:06;;;;;;;11.45;7.03;;;;;;;-4.09;100.00;96684.38;5046282;28;20049;-58
2022/12/08 06:05:33;;;;;;;14.15;7.47;;;;;;;-4.09;100.00;96681.75;5046512;28;20052;-53
2022/12/08 06:08:00;;;;;;;12.27;6.40;;;;;;;-4.14;100.00;96685.91;5046261;28;20560;-52
2022/12/08 06:10:27;;;;;;;12.30;6.65;;;;;;;-4.14;100.00;96681.44;5057592;28;20428;-53
2022/12/08 06:12:54;;;;;;;11.82;6.38;;;;;;;-4.14;100.00;96684.09;5066273;28;20056;-52
2022/12/08 06:15:20;;;;;;;11.52;6.65;;;;;;;-4.12;100.00;96684.75;5065498;28;20131;-55
2022/12/08 06:17:47;;;;;;;12.52;6.65;;;;;;;-4.20;100.00;96684.81;5066341;28;20044;-56
2022/12/08 06:20:14;;;;;;;10.45;5.38;;;;;;;-4.11;100.00;96686.41;5044776;28;20037;-55
2022/12/08 06:22:40;;;;;;;9.35;5.70;;;;;;;-4.19;100.00;96684.63;5035564;28;20049;-53
2022/12/08 06:25:07;;;;;;;10.57;5.45;;;;;;;-4.20;100.00;96690.09;5047246;28;20655;-55
2022/12/08 06:27:35;;;;;;;14.88;6.65;;;;;;;-4.31;100.00;96683.38;5038581;28;20049;-56
2022/12/08 06:30:02;;;;;;;13.13;5.90;;;;;;;-4.34;100.00;96684.56;5040108;28;20041;-56
2022/12/08 06:32:29;;;;;;;13.48;6.32;;;;;;;-4.38;100.00;96685.06;5035771;28;20045;-56
2022/12/08 06:34:56;;;;;;;12.27;7.35;;;;;;;-4.40;100.00;96679.13;5025711;28;20076;-53
2022/12/08 06:37:22;;;;;;;18.25;8.43;;;;;;;-4.45;100.00;96685.75;5041587;28;20547;-52
2022/12/08 06:39:49;;;;;;;14.48;8.48;;;;;;;-4.42;100.00;96684.59;5040932;28;20041;-56
2022/12/08 06:45:01;;;;;;;15.45;7.45;;;;;;;-4.20;100.00;96685.63;5050889;28;20048;-55
2022/12/08 06:47:27;;;;;;;12.55;7.03;;;;;;;-4.23;100.00;96685.97;5043907;28;20049;-52
2022/12/08 06:49:54;;;;;;;13.52;6.00;;;;;;;-4.26;100.00;96688.97;5045632;28;20056;-57
2022/12/08 06:52:20;;;;;;;13.15;6.47;;;;;;;-4.32;100.00;96687.00;5052384;28;20049;-57
2022/12/08 06:54:46;;;;;;;14.18;7.15;;;;;;;-4.36;100.00;96691.00;5038425;28;20689;-53
2022/12/08 06:57:13;;;;;;;15.30;8.88;;;;;;;-4.34;100.00;96683.72;5034803;28;20095;-55
2022/12/08 06:59:39;;;;;;;15.48;8.60;;;;;;;-4.29;100.00;96691.13;5043894;28;20048;-53
2022/12/08 07:02:06;;;;;;;15.90;8.65;;;;;;;-4.30;100.00;96695.59;5043315;28;20049;-57
2022/12/08 07:04:33;;;;;;;17.08;8.27;;;;;;;-4.32;100.00;96690.47;5043905;28;20068;-52
2022/12/08 07:06:59;;;;;;;18.40;11.05;;;;;;;-4.36;100.00;96694.47;5051490;28;20506;-55
2022/12/08 07:09:26;;;;;;;30.05;17.05;;;;;;;-4.40;100.00;96698.47;5062616;28;20608;-56
2022/12/08 07:11:52;;;;;;;26.98;15.85;;;;;;;-4.40;100.00;96689.69;5043492;28;20122;-57
2022/12/08 07:14:23;;;;;;;26.27;14.70;;;;;;;-4.41;100.00;96688.88;5043418;28;20045;-56
2022/12/08 07:16:51;;;;;;;17.43;9.23;;;;;;;-4.45;100.00;96688.38;5044026;28;20045;-57
2022/12/08 07:19:18;;;;;;;20.75;12.32;;;;;;;-4.47;100.00;96689.56;5044481;28;20287;-55
2022/12/08 07:21:44;;;;;;;11.50;7.47;;;;;;;-4.42;100.00;96691.69;5042804;28;20037;-56
2022/12/08 07:24:11;;;;;;;12.73;7.82;;;;;;;-4.39;100.00;96689.53;5041104;28;20041;-56
2022/12/08 07:26:38;;;;;;;17.33;9.63;;;;;;;-4.31;100.00;96692.13;5042022;28;20068;-57
2022/12/08 07:29:05;;;;;;;15.13;8.98;;;;;;;-4.29;100.00;96686.66;5043956;28;20067;-56
2022/12/08 07:31:32;;;;;;;14.45;6.03;;;;;;;-4.33;100.00;96695.94;5044447;28;20122;-55
2022/12/08 07:33:58;;;;;;;14.82;7.28;;;;;;;-4.35;100.00;96696.09;5044714;28;20044;-57
2022/12/08 07:36:25;;;;;;;15.65;7.72;;;;;;;-4.36;100.00;96698.91;5045576;28;20227;-57
2022/12/08 07:38:55;;;;;;;11.95;6.70;;;;;;;-4.31;100.00;96702.69;5046345;28;20055;-56
2022/12/08 07:41:23;;;;;;;16.15;9.43;;;;;;;-4.22;100.00;96697.38;5027848;28;20507;-54
2022/12/08 07:43:52;;;;;;;15.20;7.70;;;;;;;-4.12;100.00;96695.34;5035833;28;20128;-52
2022/12/08 07:46:21;;;;;;;14.10;7.78;;;;;;;-4.11;100.00;96693.50;5037544;28;20049;-55
2022/12/08 07:48:48;;;;;;;13.93;8.00;;;;;;;-4.14;100.00;96694.66;5044963;28;20126;-55
2022/12/08 07:51:15;;;;;;;15.80;7.63;;;;;;;-3.98;100.00;96692.94;5046024;28;20128;-55
2022/12/08 07:53:44;;;;;;;16.55;8.00;;;;;;;-3.93;100.00;96682.63;5046634;28;20182;-56
2022/12/08 07:56:19;;;;;;;15.18;7.05;;;;;;;-3.70;100.00;96684.44;5028607;28;20045;-56
2022/12/08 07:58:45;;;;;;;13.18;7.32;;;;;;;-3.54;100.00;96684.28;5026048;28;20038;-54
2022/12/08 08:01:25;;;;;;;11.68;5.75;;;;;;;-3.41;100.00;96681.06;5026636;28;20041;-54
2022/12/08 08:03:54;;;;;;;13.35;6.20;;;;;;;-3.29;100.00;96676.13;5027017;28;20049;-54
2022/12/08 08:06:20;;;;;;;13.23;6.43;;;;;;;-3.19;100.00;96682.97;5027284;28;20076;-56
2022/12/08 08:08:47;;;;;;;10.80;6.68;;;;;;;-3.12;100.00;96670.66;5027115;28;20033;-55
2022/12/08 08:11:14;;;;;;;13.15;6.10;;;;;;;-3.01;100.00;96678.16;5049228;28;20046;-53
2022/12/08 08:13:47;;;;;;;13.77;7.40;;;;;;;-2.93;100.00;96679.91;5028097;28;20058;-56
2022/12/08 08:16:13;;;;;;;11.90;5.90;;;;;;;-2.76;100.00;96683.16;5028509;28;20148;-55
2022/12/08 08:18:41;;;;;;;10.52;5.82;;;;;;;-2.66;100.00;96677.59;5032452;28;20504;-54
2022/12/08 08:21:07;;;;;;;12.52;6.40;;;;;;;-2.52;100.00;96667.97;5047510;28;20045;-55
2022/12/08 08:23:53;;;;;;;11.07;5.97;;;;;;;-2.33;100.00;96665.72;5048244;28;20481;-54
2022/12/08 08:26:20;;;;;;;11.38;6.85;;;;;;;-2.26;100.00;96660.50;5048074;28;20052;-53
2022/12/08 08:28:47;;;;;;;11.85;5.68;;;;;;;-2.17;100.00;96655.91;5047772;28;20057;-56
2022/12/08 08:31:13;;;;;;;11.35;5.85;;;;;;;-2.23;100.00;96660.97;5040305;28;20088;-56
2022/12/08 08:33:40;;;;;;;11.15;6.18;;;;;;;-2.21;100.00;96660.78;5027061;28;20053;-55
2022/12/08 08:36:08;;;;;;;10.93;5.78;;;;;;;-2.16;100.00;96668.16;5027439;28;20056;-55
2022/12/08 08:38:38;;;;;;;10.57;5.82;;;;;;;-2.01;100.00;96662.78;5027606;28;20057;-54
2022/12/08 08:41:09;;;;;;;12.70;5.57;;;;;;;-1.90;100.00;96662.28;5046943;28;20049;-56
2022/12/08 08:43:37;;;;;;;14.20;6.47;;;;;;;-1.87;100.00;96661.09;5034043;28;20059;-56
2022/12/08 08:46:05;;;;;;;14.57;6.75;;;;;;;-1.85;100.00;96662.53;5039662;28;20135;-53
2022/12/08 08:48:32;;;;;;;11.40;5.90;;;;;;;-1.73;100.00;96662.84;5040699;28;20428;-54
2022/12/08 08:51:07;;;;;;;13.05;6.15;;;;;;;-1.59;100.00;96660.28;5042880;28;20103;-54
2022/12/08 08:53:33;;;;;;;10.70;5.40;;;;;;;-1.54;100.00;96665.88;5024893;28;20045;-53
2022/12/08 08:56:03;;;;;;;13.95;6.43;;;;;;;-1.48;100.00;96657.13;5035220;28;20063;-50
2022/12/08 08:58:30;;;;;;;9.63;5.55;;;;;;;-1.31;100.00;96656.84;5030208;28;20522;-50
2022/12/08 09:00:56;;;;;;;12.00;6.15;;;;;;;-1.22;100.00;96660.97;5042060;28;20036;-51
2022/12/08 09:03:23;;;;;;;16.00;6.65;;;;;;;-1.17;100.00;96657.75;5039522;28;20123;-49
2022/12/08 09:05:50;;;;;;;11.38;7.05;;;;;;;-1.20;100.00;96655.47;5058720;28;20776;-51
2022/12/08 09:08:17;;;;;;;11.35;6.72;;;;;;;-1.02;100.00;96648.84;5045833;28;20044;-49
2022/12/08 09:10:43;;;;;;;13.18;6.00;;;;;;;-0.84;100.00;96656.31;5054672;28;20041;-52
2022/12/08 09:13:10;;;;;;;10.18;4.97;;;;;;;-0.74;100.00;96648.78;5038894;28;20060;-56
2022/12/08 09:15:36;;;;;;;10.52;5.05;;;;;;;-0.68;100.00;96649.81;5038177;28;20040;-57
2022/12/08 09:18:05;;;;;;;11.30;5.55;;;;;;;-0.63;99.08;96643.94;5041834;28;20643;-55
2022/12/08 09:20:33;;;;;;;8.50;4.45;;;;;;;-0.68;100.00;96637.38;5039313;28;20642;-53
2022/12/08 09:23:00;;;;;;;11.35;4.28;;;;;;;-0.61;99.64;96639.22;5037015;28;20037;-55
2022/12/08 09:25:27;;;;;;;9.18;4.90;;;;;;;-0.66;99.92;96630.00;5045672;28;20090;-54
2022/12/08 09:27:53;;;;;;;7.18;3.85;;;;;;;-0.59;99.77;96634.53;5044933;28;20110;-56
2022/12/08 09:30:20;;;;;;;9.57;4.63;;;;;;;-0.52;98.81;96640.69;5035000;28;20042;-54
2022/12/08 09:32:46;;;;;;;7.65;4.30;;;;;;;-0.54;98.55;96637.41;5044715;28;20072;-54
2022/12/08 09:35:13;;;;;;;8.85;4.55;;;;;;;-0.48;98.12;96643.78;5044338;28;20055;-49
2022/12/08 09:37:39;;;;;;;8.65;4.53;;;;;;;-0.58;98.77;96646.81;5044562;28;20673;-51
2022/12/08 09:40:06;;;;;;;10.20;4.10;;;;;;;-0.56;98.98;96642.94;5055555;28;20044;-52
2022/12/08 09:43:03;;;;;;;9.63;4.47;;;;;;;-0.55;99.04;96638.44;5044022;28;20045;-53
2022/12/08 09:45:34;;;;;;;9.07;4.93;;;;;;;-0.46;99.29;96636.41;5020078;28;20093;-49
2022/12/08 09:48:17;;;;;;;10.80;4.95;;;;;;;-0.43;99.32;96631.53;5024611;28;20107;-52
2022/12/08 09:50:57;;;;;;;7.47;4.30;;;;;;;-0.40;98.86;96630.31;5025828;28;20534;-53
2022/12/08 09:53:41;;;;;;;8.98;4.30;;;;;;;-0.34;98.44;96639.31;5039751;28;20555;-51
2022/12/08 09:56:15;;;;;;;10.02;4.95;;;;;;;-0.33;98.08;96632.97;5035276;28;20060;-50
2022/12/08 09:58:56;;;;;;;9.38;4.30;;;;;;;-0.24;97.38;96628.28;5049551;28;20124;-53
2022/12/08 10:01:27;;;;;;;8.45;4.35;;;;;;;-0.18;96.97;96624.81;5031621;28;20575;-52
2022/12/08 10:03:54;;;;;;;9.48;4.10;;;;;;;-0.16;97.73;96630.75;5044331;28;20051;-54
2022/12/08 10:06:36;;;;;;;9.32;4.28;;;;;;;-0.09;95.97;96622.78;5042165;28;20143;-51
2022/12/08 10:09:32;;;;;;;10.25;4.60;;;;;;;0.01;97.18;96615.25;5044930;28;20056;-54
2022/12/08 10:12:21;;;;;;;10.32;4.65;;;;;;;-0.01;96.36;96623.41;5046732;28;20041;-54
2022/12/08 10:15:12;;;;;;;7.88;4.22;;;;;;;-0.02;95.47;96613.81;5041646;28;20116;-53
2022/12/08 10:17:44;;;;;;;6.43;3.85;;;;;;;-0.11;95.28;96609.66;5034693;28;20119;-53
2022/12/08 10:20:23;;;;;;;8.10;3.70;;;;;;;-0.07;96.66;96610.09;5044768;28;20753;-53
2022/12/08 10:22:57;;;;;;;9.45;4.50;;;;;;;-0.14;96.03;96605.56;5041586;28;20116;-52
2022/12/08 10:25:35;;;;;;;8.00;4.43;;;;;;;-0.11;96.04;96607.00;5041252;28;20098;-54
2022/12/08 10:28:01;;;;;;;7.88;3.70;;;;;;;-0.07;96.46;96602.13;5040148;28;20646;-52
2022/12/08 10:30:30;;;;;;;8.68;3.95;;;;;;;-0.08;95.41;96598.63;5029576;28;20164;-54
2022/12/08 10:32:57;;;;;;;6.50;3.75;;;;;;;-0.02;94.94;96591.69;5043492;28;20036;-54
2022/12/08 10:35:24;;;;;;;6.53;3.78;;;;;;;0.16;95.37;96600.91;5054283;28;20120;-52
2022/12/08 10:37:56;;;;;;;7.32;3.53;;;;;;;0.44;95.48;96605.22;5047094;28;20057;-56
2022/12/08 10:40:26;;;;;;;7.32;3.17;;;;;;;0.66;92.51;96600.47;5040273;28;20059;-51
2022/12/08 10:42:56;;;;;;;8.80;3.72;;;;;;;0.84;91.85;96605.16;5047314;28;20723;-51
2022/12/08 10:45:32;;;;;;;10.00;3.85;;;;;;;0.93;90.91;96597.75;5053061;28;20052;-50
2022/12/08 10:48:12;;;;;;;8.20;4.03;;;;;;;1.05;89.79;96597.91;5044080;28;20049;-51
2022/12/08 10:50:57;;;;;;;7.65;3.85;;;;;;;1.06;88.19;96591.53;5043612;28;20524;-53
2022/12/08 10:53:28;;;;;;;6.90;3.05;;;;;;;1.19;87.40;96580.03;5038381;28;20175;-51
2022/12/08 10:56:01;;;;;;;6.13;3.22;;;;;;;1.23;87.12;96577.75;5041630;28;20049;-51
2022/12/08 10:58:41;;;;;;;5.15;3.10;;;;;;;1.43;86.45;96567.81;5043659;28;20049;-52
2022/12/08 11:01:31;;;;;;;6.63;3.15;;;;;;;1.55;85.89;96567.94;5041809;28;20065;-52
2022/12/08 11:04:01;;;;;;;6.50;3.47;;;;;;;1.65;84.65;96570.16;5043549;28;20041;-54
2022/12/08 11:06:27;;;;;;;5.88;3.45;;;;;;;1.81;83.98;96560.00;5041902;28;20051;-55
2022/12/08 11:08:57;;;;;;;6.68;3.53;;;;;;;2.02;84.03;96557.97;5043464;28;20508;-51
2022/12/08 11:11:46;;;;;;;7.38;3.55;;;;;;;1.83;83.57;96552.56;5053116;28;20039;-56
2022/12/08 11:14:22;;;;;;;8.00;3.33;;;;;;;1.77;83.35;96553.47;5042882;28;20124;-53
2022/12/08 11:16:52;;;;;;;6.20;3.25;;;;;;;1.73;85.17;96542.38;5042318;28;20431;-56
2022/12/08 11:19:20;;;;;;;6.53;3.38;;;;;;;1.99;83.34;96539.75;5044490;28;20088;-56
2022/12/08 11:21:47;;;;;;;5.75;3.42;;;;;;;1.92;83.69;96537.13;5055736;28;20098;-53
2022/12/08 11:24:13;;;;;;;6.55;3.28;;;;;;;1.57;83.49;96538.38;5043171;28;20107;-54
2022/12/08 11:26:48;;;;;;;7.47;3.25;;;;;;;1.68;84.04;96540.38;5044224;28;20131;-52
2022/12/08 11:29:16;;;;;;;6.00;3.17;;;;;;;1.74;83.77;96536.03;5046843;28;20049;-52
2022/12/08 11:31:56;;;;;;;5.47;3.05;;;;;;;1.87;83.74;96537.75;5057353;28;20098;-53
2022/12/08 11:34:33;;;;;;;6.07;3.28;;;;;;;2.00;85.32;96523.50;5046225;28;20056;-53
2022/12/08 11:37:04;;;;;;;8.40;3.28;;;;;;;1.97;85.79;96523.09;5035638;28;20049;-54
2022/12/08 11:39:34;;;;;;;6.22;3.00;;;;;;;2.11;83.13;96513.97;5043439;28;20120;-51
2022/12/08 11:42:05;;;;;;;6.00;3.05;;;;;;;1.78;82.26;96525.72;5046402;28;20043;-54
2022/12/08 11:44:45;;;;;;;6.85;2.95;;;;;;;1.82;81.60;96524.25;5060064;28;20079;-52